Time;durP1;ratioP1;P1;durP2;ratioP2;P2;SDS_P1;SDS_P2;PMS_P1;PMS_P2;Temp;Humidity;BMP_temperature;BMP_pressure;BME280_temperature;BME280_humidity;BME280_pressure;Samples;Min_cycle;Max_cycle;Signal;HPM_P1;HPM_P2
2023/07/23 00:00:25;;;;;;;6.80;3.08;;;14.70;99.90;;;;;;5001825;28;20430;-36
2023/07/23 00:02:50;;;;;;;6.25;2.45;;;14.70;99.90;;;;;;5005163;28;20069;-36
2023/07/23 00:05:16;;;;;;;6.55;3.20;;;14.70;99.90;;;;;;4999686;28;20050;-36
2023/07/23 00:07:42;;;;;;;8.63;3.25;;;14.70;99.90;;;;;;5002641;28;20083;-36
2023/07/23 00:10:11;;;;;;;5.93;2.92;;;14.70;99.90;;;;;;5003715;28;20069;-36
2023/07/23 00:12:37;;;;;;;6.57;2.97;;;14.70;99.90;;;;;;5002184;28;20396;-36
2023/07/23 00:15:04;;;;;;;6.97;3.10;;;14.70;99.90;;;;;;5004535;28;21382;-36
2023/07/23 00:17:30;;;;;;;8.60;2.83;;;14.70;99.90;;;;;;4999620;28;20053;-36
2023/07/23 00:19:56;;;;;;;8.32;3.10;;;14.70;99.90;;;;;;5004670;28;20054;-36
2023/07/23 00:22:21;;;;;;;6.80;2.63;;;14.70;99.90;;;;;;5001929;28;20089;-36
2023/07/23 00:24:47;;;;;;;7.70;2.75;;;14.70;99.90;;;;;;5000479;28;20053;-36
2023/07/23 00:27:16;;;;;;;7.70;2.60;;;14.70;99.90;;;;;;5001424;28;20084;-36
2023/07/23 00:29:42;;;;;;;5.55;2.38;;;14.70;99.90;;;;;;5002010;28;20080;-36
2023/07/23 00:32:08;;;;;;;6.50;3.20;;;14.70;99.90;;;;;;4999576;28;20108;-36
2023/07/23 00:34:34;;;;;;;5.88;2.92;;;14.70;99.90;;;;;;4997192;28;20061;-36
2023/07/23 00:37:00;;;;;;;7.03;2.92;;;14.70;99.90;;;;;;5000968;28;20054;-36
2023/07/23 00:39:26;;;;;;;5.72;2.60;;;14.70;99.90;;;;;;5000463;28;20076;-36
2023/07/23 00:41:52;;;;;;;5.28;2.58;;;14.70;99.90;;;;;;5001785;28;20055;-36
2023/07/23 00:44:17;;;;;;;5.50;2.88;;;14.70;99.90;;;;;;5000325;28;20490;-36
2023/07/23 00:46:44;;;;;;;5.85;2.90;;;14.70;99.90;;;;;;5001377;28;20038;-36
2023/07/23 00:49:11;;;;;;;9.25;2.83;;;14.70;99.90;;;;;;5000720;28;20145;-36
2023/07/23 00:51:38;;;;;;;5.18;2.55;;;14.60;99.90;;;;;;4997507;28;20046;-36
2023/07/23 00:54:04;;;;;;;6.60;3.05;;;14.60;99.90;;;;;;5003533;28;21112;-36
2023/07/23 00:56:30;;;;;;;6.90;3.17;;;14.60;99.90;;;;;;4998043;28;21125;-36
2023/07/23 00:58:56;;;;;;;5.90;2.58;;;14.50;99.90;;;;;;5002324;28;20522;-36
2023/07/23 01:01:22;;;;;;;6.60;2.58;;;14.50;99.90;;;;;;5002842;28;20483;-36
2023/07/23 01:03:50;;;;;;;6.90;2.53;;;14.50;99.90;;;;;;5000682;28;20042;-36
2023/07/23 01:06:17;;;;;;;5.47;2.83;;;14.50;99.90;;;;;;5001084;28;20054;-36
2023/07/23 01:08:45;;;;;;;7.22;3.00;;;14.40;99.90;;;;;;5004304;28;20061;-36
2023/07/23 01:11:11;;;;;;;5.97;2.88;;;14.40;99.90;;;;;;4997673;28;20187;-42
2023/07/23 01:13:38;;;;;;;7.82;2.40;;;14.40;99.90;;;;;;5000363;28;20630;-36
2023/07/23 01:16:07;;;;;;;6.25;3.33;;;14.40;99.90;;;;;;4996710;28;20963;-36
2023/07/23 01:18:36;;;;;;;6.30;3.05;;;14.40;99.90;;;;;;5002468;28;20064;-36
2023/07/23 01:21:02;;;;;;;6.63;2.85;;;14.40;99.90;;;;;;5002008;28;20436;-36
2023/07/23 01:23:27;;;;;;;6.72;2.92;;;14.40;99.90;;;;;;4998991;28;20057;-36
2023/07/23 01:25:53;;;;;;;7.95;2.80;;;14.40;99.90;;;;;;5004447;28;20085;-36
2023/07/23 01:28:18;;;;;;;9.35;2.60;;;14.40;99.90;;;;;;4998949;28;20416;-36
2023/07/23 01:30:45;;;;;;;4.55;2.38;;;14.40;99.90;;;;;;5007928;28;20061;-36
2023/07/23 01:33:11;;;;;;;6.10;3.28;;;14.40;99.90;;;;;;5000313;28;20049;-36
2023/07/23 01:35:37;;;;;;;5.95;3.00;;;14.50;99.90;;;;;;5000371;28;20054;-36
2023/07/23 01:38:03;;;;;;;6.03;3.33;;;14.50;99.90;;;;;;4999452;28;20057;-36
2023/07/23 01:40:30;;;;;;;5.53;2.60;;;14.50;99.90;;;;;;5015353;28;20136;-36
2023/07/23 01:42:56;;;;;;;7.03;3.90;;;14.50;99.90;;;;;;5000844;28;20054;-36
2023/07/23 01:45:22;;;;;;;8.23;3.33;;;14.50;99.90;;;;;;4995823;28;20085;-36
2023/07/23 01:47:47;;;;;;;6.45;2.97;;;14.50;99.90;;;;;;5004577;28;20069;-36
2023/07/23 01:50:13;;;;;;;4.88;3.03;;;14.50;99.90;;;;;;4998825;28;20064;-36
2023/07/23 01:52:38;;;;;;;6.85;3.15;;;14.60;99.90;;;;;;4997502;28;20054;-36
2023/07/23 01:55:05;;;;;;;4.75;2.95;;;14.60;99.90;;;;;;5001157;28;20050;-36
2023/07/23 01:57:30;;;;;;;5.50;2.80;;;14.60;99.90;;;;;;5003207;28;20046;-36
2023/07/23 01:59:56;;;;;;;4.90;2.63;;;14.60;99.90;;;;;;5001313;28;20061;-36
2023/07/23 02:02:22;;;;;;;6.30;2.85;;;14.60;99.90;;;;;;4998784;28;20053;-36
2023/07/23 02:04:47;;;;;;;8.95;3.20;;;14.60;99.90;;;;;;4994698;28;20503;-36
2023/07/23 02:07:14;;;;;;;4.55;2.90;;;14.70;99.90;;;;;;4990410;28;20046;-36
2023/07/23 02:09:40;;;;;;;6.03;3.00;;;14.60;99.90;;;;;;4999746;28;20053;-36
2023/07/23 02:12:06;;;;;;;5.82;3.00;;;14.60;99.90;;;;;;5016334;28;20065;-36
2023/07/23 02:14:32;;;;;;;5.97;3.10;;;14.60;99.90;;;;;;5002569;28;20049;-36
2023/07/23 02:16:58;;;;;;;5.85;3.15;;;14.70;99.90;;;;;;5003408;28;20084;-36
2023/07/23 02:19:23;;;;;;;6.30;3.30;;;14.70;99.90;;;;;;5002260;28;20488;-36
2023/07/23 02:21:49;;;;;;;6.00;2.80;;;14.70;99.90;;;;;;5007187;28;20053;-36
2023/07/23 02:24:14;;;;;;;7.22;3.42;;;14.70;99.90;;;;;;5003356;28;20058;-36
2023/07/23 02:26:40;;;;;;;8.63;3.88;;;14.70;99.90;;;;;;5003125;28;20554;-36
2023/07/23 02:29:06;;;;;;;8.23;3.92;;;14.70;99.90;;;;;;5001250;28;20050;-36
2023/07/23 02:31:32;;;;;;;9.48;3.72;;;14.70;99.90;;;;;;5005159;28;20058;-36
2023/07/23 02:33:58;;;;;;;10.18;3.65;;;14.70;99.90;;;;;;5004226;28;20053;-36
2023/07/23 02:36:24;;;;;;;7.63;3.72;;;14.70;99.90;;;;;;5002630;28;20044;-36
2023/07/23 02:38:49;;;;;;;6.45;3.55;;;14.70;99.90;;;;;;5004298;28;20068;-36
2023/07/23 02:41:15;;;;;;;6.50;3.47;;;14.70;99.90;;;;;;4998577;28;20058;-36
2023/07/23 02:43:41;;;;;;;8.73;3.95;;;14.70;99.90;;;;;;5000230;28;20053;-36
2023/07/23 02:46:06;;;;;;;7.80;3.90;;;14.70;99.90;;;;;;4998299;28;20715;-36
2023/07/23 02:48:32;;;;;;;5.88;3.22;;;14.70;99.90;;;;;;4995718;28;20072;-36
2023/07/23 02:50:57;;;;;;;8.70;3.88;;;14.70;99.90;;;;;;4998367;28;20061;-36
2023/07/23 02:53:26;;;;;;;7.47;3.80;;;14.70;99.90;;;;;;5004995;28;20133;-36
2023/07/23 02:55:51;;;;;;;7.50;3.50;;;14.70;99.90;;;;;;5008701;28;20100;-36
2023/07/23 02:58:17;;;;;;;6.15;3.13;;;14.70;99.90;;;;;;5002260;28;20050;-36
2023/07/23 03:00:44;;;;;;;8.23;3.83;;;14.70;99.90;;;;;;5001948;28;20451;-36
2023/07/23 03:03:10;;;;;;;7.18;3.65;;;14.70;99.90;;;;;;5004239;28;20046;-36
2023/07/23 03:05:36;;;;;;;7.88;3.58;;;14.70;99.90;;;;;;5003055;28;20519;-36
2023/07/23 03:08:02;;;;;;;7.35;3.72;;;14.70;99.90;;;;;;5000416;28;20078;-36
2023/07/23 03:10:29;;;;;;;6.90;3.33;;;14.70;99.90;;;;;;5000938;28;20400;-36
2023/07/23 03:12:55;;;;;;;7.30;3.78;;;14.70;99.90;;;;;;5002387;28;20049;-36
2023/07/23 03:15:22;;;;;;;8.25;3.65;;;14.70;99.90;;;;;;5000092;28;20153;-37
2023/07/23 03:17:47;;;;;;;7.57;3.50;;;14.70;99.90;;;;;;5004777;28;20112;-37
2023/07/23 03:20:14;;;;;;;8.52;3.20;;;14.70;99.90;;;;;;5005488;28;20053;-36
2023/07/23 03:22:40;;;;;;;6.97;3.15;;;14.70;99.90;;;;;;4997805;28;20050;-36
2023/07/23 03:25:06;;;;;;;8.75;3.88;;;14.70;99.90;;;;;;5009591;28;20073;-36
2023/07/23 03:27:32;;;;;;;8.40;3.75;;;14.70;99.90;;;;;;5004863;28;20507;-36
2023/07/23 03:29:58;;;;;;;6.40;3.25;;;14.70;99.90;;;;;;5006082;28;20054;-37
2023/07/23 03:32:23;;;;;;;6.53;3.30;;;14.70;99.90;;;;;;5001826;28;20111;-36
2023/07/23 03:34:49;;;;;;;9.57;3.35;;;14.70;99.90;;;;;;5004335;28;20058;-36
2023/07/23 03:37:15;;;;;;;6.30;3.63;;;14.70;99.90;;;;;;4995999;28;20056;-36
2023/07/23 03:39:40;;;;;;;6.50;3.92;;;14.70;99.90;;;;;;5002830;28;20084;-36
2023/07/23 03:42:06;;;;;;;5.63;3.17;;;14.70;99.90;;;;;;5000112;28;20132;-36
2023/07/23 03:44:33;;;;;;;8.25;3.60;;;14.70;99.90;;;;;;5003644;28;20046;-36
2023/07/23 03:46:58;;;;;;;7.80;4.55;;;14.70;99.90;;;;;;5003137;28;20046;-36
2023/07/23 03:49:24;;;;;;;6.05;3.33;;;14.70;99.90;;;;;;5000837;28;20057;-36
2023/07/23 03:51:49;;;;;;;7.85;3.65;;;14.70;99.90;;;;;;5000758;28;20041;-36
2023/07/23 03:54:15;;;;;;;7.13;3.45;;;14.70;99.90;;;;;;5001779;28;20799;-36
2023/07/23 03:56:41;;;;;;;6.80;3.97;;;14.70;99.90;;;;;;5001505;28;20415;-36
2023/07/23 03:59:06;;;;;;;9.38;3.88;;;14.70;99.90;;;;;;5002104;28;20045;-36
2023/07/23 04:01:32;;;;;;;11.38;4.30;;;14.70;99.90;;;;;;5003232;28;20053;-36
2023/07/23 04:03:59;;;;;;;6.65;3.70;;;14.70;99.90;;;;;;5006029;28;20052;-37
2023/07/23 04:06:26;;;;;;;7.15;3.63;;;14.70;99.90;;;;;;5003597;28;20496;-36
2023/07/23 04:08:52;;;;;;;9.45;3.90;;;14.70;99.90;;;;;;5000966;28;20136;-36
2023/07/23 04:11:17;;;;;;;7.10;3.72;;;14.70;99.90;;;;;;5003563;28;20200;-36
2023/07/23 04:13:43;;;;;;;7.90;3.72;;;14.70;99.90;;;;;;5003362;28;20111;-36
2023/07/23 04:16:12;;;;;;;7.40;4.40;;;14.70;99.90;;;;;;5001088;28;20050;-36
2023/07/23 04:18:53;;;;;;;7.40;4.20;;;14.70;99.90;;;;;;5001816;28;20042;-36
2023/07/23 04:21:19;;;;;;;7.50;4.25;;;14.70;99.90;;;;;;5003464;28;20137;-36
2023/07/23 04:23:46;;;;;;;11.55;4.57;;;14.70;99.90;;;;;;5004351;28;20050;-36
2023/07/23 04:26:12;;;;;;;11.55;4.93;;;14.70;99.90;;;;;;5001410;28;20074;-36
2023/07/23 04:28:37;;;;;;;8.43;4.60;;;14.70;99.90;;;;;;5004600;28;20050;-36
2023/07/23 04:31:03;;;;;;;8.48;4.75;;;14.70;99.90;;;;;;5003808;28;20164;-36
2023/07/23 04:33:29;;;;;;;9.48;4.68;;;14.70;99.90;;;;;;5002140;28;20049;-36
2023/07/23 04:35:54;;;;;;;7.63;4.22;;;14.70;99.90;;;;;;5002043;28;20539;-36
2023/07/23 04:38:20;;;;;;;9.07;4.55;;;14.70;99.90;;;;;;5000065;28;20112;-36
2023/07/23 04:40:49;;;;;;;9.18;5.18;;;14.70;99.90;;;;;;5000707;28;20061;-36
2023/07/23 04:43:14;;;;;;;7.35;4.63;;;14.70;99.90;;;;;;5004804;28;20053;-36
2023/07/23 04:45:41;;;;;;;9.25;4.72;;;14.70;99.90;;;;;;5002864;28;20061;-36
2023/07/23 04:48:07;;;;;;;7.07;4.50;;;14.70;99.90;;;;;;4999090;28;20054;-36
2023/07/23 04:50:32;;;;;;;9.60;4.75;;;14.70;99.90;;;;;;5002899;28;20075;-36
2023/07/23 04:52:58;;;;;;;8.20;4.50;;;14.70;99.90;;;;;;4997311;28;20483;-36
2023/07/23 04:55:25;;;;;;;11.85;4.70;;;14.80;99.90;;;;;;5002909;28;20057;-36
2023/07/23 04:57:51;;;;;;;9.10;4.28;;;14.70;99.90;;;;;;5006972;28;20050;-36
2023/07/23 05:00:17;;;;;;;8.50;4.63;;;14.80;99.90;;;;;;4999581;28;20065;-36
2023/07/23 05:02:42;;;;;;;7.63;4.22;;;14.80;99.90;;;;;;5004708;28;20053;-36
2023/07/23 05:05:08;;;;;;;7.93;4.18;;;14.80;99.90;;;;;;4999937;28;20089;-36
2023/07/23 05:07:34;;;;;;;6.90;4.63;;;14.90;99.90;;;;;;5002641;28;20054;-36
2023/07/23 05:10:00;;;;;;;9.85;4.82;;;14.90;99.90;;;;;;4999847;28;20132;-36
2023/07/23 05:12:26;;;;;;;7.35;4.40;;;14.90;99.90;;;;;;5002228;28;20112;-36
2023/07/23 05:14:54;;;;;;;9.32;5.00;;;14.90;99.90;;;;;;5000514;28;20100;-36
2023/07/23 05:17:20;;;;;;;8.82;5.03;;;14.90;99.90;;;;;;5003865;28;20049;-36
2023/07/23 05:19:45;;;;;;;8.18;4.70;;;14.90;99.90;;;;;;5000566;28;20088;-36
2023/07/23 05:22:11;;;;;;;7.63;4.55;;;15.00;99.90;;;;;;5000683;28;20054;-36
2023/07/23 05:24:36;;;;;;;8.18;4.80;;;15.00;99.90;;;;;;5002619;28;20453;-36
2023/07/23 05:27:03;;;;;;;12.30;4.60;;;15.00;99.90;;;;;;5002959;28;20053;-36
2023/07/23 05:29:28;;;;;;;7.32;4.03;;;15.00;99.90;;;;;;4998373;28;20057;-36
2023/07/23 05:31:54;;;;;;;7.50;5.03;;;15.00;99.90;;;;;;5003292;28;20042;-36
2023/07/23 05:34:20;;;;;;;8.27;4.63;;;15.10;99.90;;;;;;4999134;28;20046;-35
2023/07/23 05:36:45;;;;;;;10.93;4.93;;;15.10;99.90;;;;;;5004010;28;20161;-35
2023/07/23 05:39:11;;;;;;;9.57;4.45;;;15.10;99.90;;;;;;4997944;28;20054;-35
2023/07/23 05:41:37;;;;;;;9.35;4.97;;;15.20;99.90;;;;;;4999887;28;20065;-35
2023/07/23 05:44:02;;;;;;;6.93;4.53;;;15.20;99.90;;;;;;4997942;28;20046;-35
2023/07/23 05:46:28;;;;;;;7.38;4.38;;;15.20;99.90;;;;;;5004456;28;20104;-35
2023/07/23 05:48:53;;;;;;;7.72;4.78;;;15.20;99.90;;;;;;4998008;28;20444;-35
2023/07/23 05:51:19;;;;;;;7.53;4.75;;;15.30;99.90;;;;;;4998279;28;20050;-35
2023/07/23 05:53:45;;;;;;;8.88;5.10;;;15.30;99.90;;;;;;5004537;28;20104;-35
2023/07/23 05:56:10;;;;;;;6.80;3.83;;;15.30;99.90;;;;;;5006708;28;20053;-35
2023/07/23 05:58:36;;;;;;;7.93;4.53;;;15.40;99.90;;;;;;5004060;28;20069;-35
2023/07/23 06:01:03;;;;;;;7.18;4.25;;;15.40;99.90;;;;;;4999882;28;20058;-35
2023/07/23 06:03:28;;;;;;;6.60;4.15;;;15.50;99.90;;;;;;5003809;28;20060;-35
2023/07/23 06:05:54;;;;;;;9.73;4.88;;;15.50;99.90;;;;;;5000363;28;20431;-35
2023/07/23 06:08:20;;;;;;;8.25;4.25;;;15.50;99.90;;;;;;5001215;28;20053;-35
2023/07/23 06:10:45;;;;;;;7.38;4.30;;;15.50;99.90;;;;;;5001684;28;20049;-35
2023/07/23 06:13:11;;;;;;;8.65;4.32;;;15.60;99.90;;;;;;5002880;28;20058;-35
2023/07/23 06:15:37;;;;;;;6.88;3.78;;;15.60;99.90;;;;;;5005527;28;20116;-35
2023/07/23 06:18:02;;;;;;;8.50;4.68;;;15.60;99.90;;;;;;5017052;28;20065;-35
2023/07/23 06:20:28;;;;;;;9.50;3.40;;;15.60;99.90;;;;;;5014968;28;20048;-35
2023/07/23 06:22:54;;;;;;;7.32;3.92;;;15.70;99.90;;;;;;5003637;28;20121;-35
2023/07/23 06:25:20;;;;;;;9.18;4.00;;;15.70;99.90;;;;;;5004894;28;20058;-35
2023/07/23 06:27:46;;;;;;;8.30;3.40;;;15.70;99.90;;;;;;5000479;28;20046;-35
2023/07/23 06:30:11;;;;;;;7.22;4.03;;;15.80;99.90;;;;;;5001741;28;20424;-36
2023/07/23 06:32:37;;;;;;;7.50;3.70;;;15.80;99.90;;;;;;5004464;28;20045;-37
2023/07/23 06:35:05;;;;;;;10.60;3.95;;;15.80;99.90;;;;;;5003961;28;20616;-37
2023/07/23 06:37:30;;;;;;;7.18;3.25;;;15.80;99.90;;;;;;5004690;28;20144;-37
2023/07/23 06:39:56;;;;;;;6.72;3.75;;;15.90;99.90;;;;;;5001306;28;20133;-36
2023/07/23 06:42:22;;;;;;;7.28;4.00;;;15.90;99.90;;;;;;5022963;28;20041;-38
2023/07/23 06:44:47;;;;;;;6.57;3.38;;;15.80;99.90;;;;;;4996394;28;20136;-36
2023/07/23 06:47:14;;;;;;;7.93;4.03;;;15.80;99.90;;;;;;5002482;28;20093;-37
2023/07/23 06:49:39;;;;;;;6.88;3.47;;;15.80;99.90;;;;;;5021095;28;20518;-37
2023/07/23 06:52:05;;;;;;;7.78;4.07;;;15.80;99.90;;;;;;5003562;28;20136;-37
2023/07/23 06:54:32;;;;;;;7.30;3.47;;;15.80;99.90;;;;;;5004648;28;20042;-36
2023/07/23 06:56:58;;;;;;;8.30;3.78;;;15.90;99.90;;;;;;5004446;28;20042;-36
2023/07/23 06:59:24;;;;;;;7.45;3.80;;;15.90;99.90;;;;;;5003553;28;20400;-37
2023/07/23 07:01:50;;;;;;;9.20;3.75;;;15.90;99.90;;;;;;5004056;28;20421;-37
2023/07/23 07:04:16;;;;;;;8.18;3.78;;;15.90;99.90;;;;;;5008958;28;20054;-37
2023/07/23 07:06:42;;;;;;;11.20;4.15;;;15.90;99.90;;;;;;5005204;28;20679;-37
2023/07/23 07:09:08;;;;;;;8.93;3.45;;;15.90;99.90;;;;;;4987144;28;20053;-37
2023/07/23 07:11:34;;;;;;;7.95;4.05;;;16.00;99.90;;;;;;5004283;28;20049;-36
2023/07/23 07:13:59;;;;;;;7.30;3.60;;;16.00;99.90;;;;;;5003799;28;20120;-36
2023/07/23 07:16:25;;;;;;;8.93;4.70;;;16.00;99.90;;;;;;5002168;28;20051;-37
2023/07/23 07:18:53;;;;;;;7.68;4.18;;;16.00;99.90;;;;;;5004473;28;20046;-37
2023/07/23 07:21:18;;;;;;;6.50;3.47;;;15.90;99.90;;;;;;5001272;28;20085;-37
2023/07/23 07:23:44;;;;;;;7.32;3.28;;;15.90;99.90;;;;;;5004476;28;20072;-37
2023/07/23 07:26:10;;;;;;;9.75;3.67;;;15.90;99.90;;;;;;5004116;28;20196;-37
2023/07/23 07:28:35;;;;;;;7.40;3.47;;;15.90;99.90;;;;;;4999787;28;20045;-37
2023/07/23 07:31:03;;;;;;;13.70;4.13;;;15.80;99.90;;;;;;4999210;28;20464;-36
2023/07/23 07:33:29;;;;;;;7.55;4.00;;;15.80;99.90;;;;;;5003161;28;20487;-36
2023/07/23 07:35:55;;;;;;;6.55;3.67;;;15.70;99.90;;;;;;5002205;28;20050;-36
2023/07/23 07:38:21;;;;;;;6.50;3.92;;;15.70;99.90;;;;;;5004523;28;20057;-36
2023/07/23 07:40:51;;;;;;;8.20;3.63;;;15.70;99.90;;;;;;5000674;28;20117;-36
2023/07/23 07:43:17;;;;;;;9.07;3.67;;;15.70;99.90;;;;;;5004310;28;20159;-35
2023/07/23 07:45:47;;;;;;;8.13;3.60;;;15.70;99.90;;;;;;4997811;28;20839;-36
2023/07/23 07:48:13;;;;;;;8.10;3.70;;;15.70;99.90;;;;;;5001499;28;20146;-36
2023/07/23 07:50:38;;;;;;;6.47;2.85;;;15.80;99.90;;;;;;4999810;28;20061;-36
2023/07/23 07:53:04;;;;;;;7.50;3.58;;;15.80;99.90;;;;;;5002919;28;20439;-36
2023/07/23 07:55:29;;;;;;;7.15;3.30;;;15.80;99.90;;;;;;5002998;28;20057;-36
2023/07/23 07:57:55;;;;;;;8.45;3.50;;;15.80;99.90;;;;;;5003126;28;20549;-36
2023/07/23 08:00:21;;;;;;;6.97;3.50;;;15.80;99.90;;;;;;4999538;28;20060;-36
2023/07/23 08:02:47;;;;;;;8.05;3.38;;;15.90;99.90;;;;;;5001650;28;20072;-36
2023/07/23 08:05:14;;;;;;;8.93;3.30;;;15.90;99.90;;;;;;4993430;28;20135;-36
2023/07/23 08:07:39;;;;;;;7.65;3.28;;;15.90;99.90;;;;;;4991946;28;20050;-36
2023/07/23 08:10:06;;;;;;;7.38;3.35;;;15.90;99.90;;;;;;4996515;28;20045;-36
2023/07/23 08:12:33;;;;;;;7.18;3.63;;;15.90;99.90;;;;;;4996504;28;20045;-36
2023/07/23 08:14:59;;;;;;;8.48;3.50;;;15.90;99.90;;;;;;4998785;28;20054;-36
2023/07/23 08:17:25;;;;;;;5.82;3.55;;;15.90;99.90;;;;;;4996847;28;20081;-36
2023/07/23 08:19:51;;;;;;;6.60;3.20;;;15.90;99.90;;;;;;4998319;28;20155;-36
2023/07/23 08:22:17;;;;;;;6.70;3.35;;;15.90;99.90;;;;;;4994262;28;20088;-36
2023/07/23 08:24:43;;;;;;;6.18;2.50;;;15.90;99.90;;;;;;4999733;28;20069;-36
2023/07/23 08:27:11;;;;;;;6.50;3.00;;;15.90;99.90;;;;;;5002720;28;20054;-36
2023/07/23 08:29:38;;;;;;;6.80;3.20;;;16.00;99.90;;;;;;4998301;28;20061;-36
2023/07/23 08:32:05;;;;;;;5.30;2.83;;;16.00;99.90;;;;;;5002523;28;20657;-36
2023/07/23 08:34:31;;;;;;;6.22;3.03;;;16.00;99.90;;;;;;4997949;28;20054;-36
2023/07/23 08:36:57;;;;;;;5.32;2.92;;;16.10;99.90;;;;;;5002654;28;20053;-36
2023/07/23 08:39:22;;;;;;;6.13;2.78;;;16.10;99.90;;;;;;5001416;28;20049;-36
2023/07/23 08:42:00;;;;;;;5.00;2.35;;;16.10;99.90;;;;;;4993960;28;20515;-36
2023/07/23 08:44:53;;;;;;;4.55;2.70;;;16.20;99.90;;;;;;4994631;28;20054;-36
2023/07/23 08:47:21;;;;;;;4.95;2.70;;;16.20;99.90;;;;;;5001282;28;20580;-36
2023/07/23 08:49:48;;;;;;;4.63;2.63;;;16.30;99.90;;;;;;5000165;28;20045;-36
2023/07/23 08:52:15;;;;;;;5.22;2.60;;;16.30;99.90;;;;;;5000403;28;20049;-36
2023/07/23 08:54:42;;;;;;;6.00;2.95;;;16.20;99.90;;;;;;4999287;28;20066;-36
2023/07/23 08:57:09;;;;;;;8.38;3.40;;;16.20;99.90;;;;;;5002650;28;20073;-36
2023/07/23 08:59:36;;;;;;;4.57;2.40;;;16.10;99.90;;;;;;5004836;28;20755;-36
2023/07/23 09:02:02;;;;;;;6.75;2.58;;;16.10;99.90;;;;;;5002729;28;20104;-36
2023/07/23 09:04:28;;;;;;;6.45;2.60;;;16.20;99.90;;;;;;5002864;28;20042;-36
2023/07/23 09:06:57;;;;;;;6.35;2.83;;;16.20;99.90;;;;;;5009412;28;20058;-36
2023/07/23 09:09:24;;;;;;;8.02;2.75;;;16.20;99.90;;;;;;5000340;28;20053;-36
2023/07/23 09:11:50;;;;;;;3.55;2.10;;;16.20;99.90;;;;;;5000296;28;20077;-36
2023/07/23 09:14:16;;;;;;;4.13;2.78;;;16.20;99.90;;;;;;5002495;28;20486;-36
2023/07/23 09:16:47;;;;;;;5.18;2.17;;;16.30;99.90;;;;;;5006062;28;20052;-43
2023/07/23 09:19:21;;;;;;;5.57;2.28;;;16.30;99.90;;;;;;4998735;28;20061;-36
2023/07/23 09:21:47;;;;;;;4.63;2.40;;;16.40;99.90;;;;;;5004205;28;20056;-36
2023/07/23 09:24:15;;;;;;;4.75;2.38;;;16.40;99.90;;;;;;4992539;28;20045;-36
2023/07/23 09:26:41;;;;;;;5.00;2.40;;;16.40;99.90;;;;;;4997416;28;20060;-36
2023/07/23 09:29:11;;;;;;;3.90;1.90;;;16.30;99.90;;;;;;5001025;28;20053;-36
2023/07/23 09:31:42;;;;;;;4.32;2.30;;;16.30;99.90;;;;;;4998999;28;20105;-36
2023/07/23 09:34:08;;;;;;;4.30;2.35;;;16.30;99.90;;;;;;5003998;28;20075;-36
2023/07/23 09:36:35;;;;;;;5.65;2.30;;;16.40;99.90;;;;;;5001763;28;20430;-36
2023/07/23 09:39:04;;;;;;;5.03;2.22;;;16.40;99.90;;;;;;5005997;28;20046;-36
2023/07/23 09:41:34;;;;;;;3.83;2.30;;;16.40;99.90;;;;;;5020070;28;20085;-36
2023/07/23 09:44:12;;;;;;;5.93;2.28;;;16.40;99.90;;;;;;5007403;28;20073;-35
2023/07/23 09:46:45;;;;;;;4.70;2.28;;;16.50;99.90;;;;;;5006058;28;20140;-36
2023/07/23 09:49:12;;;;;;;4.50;2.25;;;16.50;99.90;;;;;;5008667;28;20057;-36
2023/07/23 09:51:38;;;;;;;4.60;2.17;;;16.50;99.90;;;;;;5008181;28;20049;-36
2023/07/23 09:54:04;;;;;;;6.22;2.22;;;16.50;99.90;;;;;;5009420;28;20054;-36
2023/07/23 09:56:35;;;;;;;4.28;2.30;;;16.50;99.90;;;;;;5007645;28;20096;-36
2023/07/23 09:59:02;;;;;;;6.40;2.22;;;16.50;99.90;;;;;;4999497;28;20053;-36
2023/07/23 10:01:28;;;;;;;4.78;2.35;;;16.50;99.90;;;;;;5006936;28;20054;-36
2023/07/23 10:03:55;;;;;;;5.15;2.58;;;16.50;99.90;;;;;;5008713;28;20498;-36
2023/07/23 10:06:23;;;;;;;5.53;2.70;;;16.40;99.90;;;;;;5014488;28;20058;-36
2023/07/23 10:08:50;;;;;;;4.60;2.80;;;16.40;99.90;;;;;;5007314;28;20683;-36
2023/07/23 10:11:17;;;;;;;6.45;2.40;;;16.40;99.90;;;;;;5004654;28;20513;-36
2023/07/23 10:13:44;;;;;;;7.78;2.35;;;16.40;99.90;;;;;;5006321;28;20144;-36
2023/07/23 10:16:47;;;;;;;3.85;2.38;;;16.50;99.90;;;;;;5008749;28;20046;-35
2023/07/23 10:19:14;;;;;;;4.87;2.47;;;16.50;99.90;;;;;;5009045;28;20058;-36
2023/07/23 10:21:45;;;;;;;5.10;2.78;;;16.50;99.90;;;;;;5005198;28;20129;-36
2023/07/23 10:24:11;;;;;;;4.50;2.50;;;16.50;99.90;;;;;;4993844;28;20601;-36
2023/07/23 10:26:41;;;;;;;6.60;2.90;;;16.60;99.90;;;;;;5009436;28;20136;-36
2023/07/23 10:29:13;;;;;;;4.72;2.35;;;16.60;99.90;;;;;;5005664;28;20053;-36
2023/07/23 10:31:40;;;;;;;6.22;3.15;;;16.60;99.90;;;;;;5010932;28;20061;-36
2023/07/23 10:34:27;;;;;;;6.57;2.72;;;16.70;99.90;;;;;;5005443;28;20054;-36
2023/07/23 10:37:14;;;;;;;6.00;3.13;;;16.70;99.90;;;;;;4997222;28;20065;-36
2023/07/23 10:39:44;;;;;;;4.63;2.42;;;16.70;99.90;;;;;;4985756;28;20047;-36
2023/07/23 10:42:29;;;;;;;6.82;2.95;;;16.70;99.90;;;;;;4990239;28;20050;-35
2023/07/23 10:45:17;;;;;;;5.20;2.50;;;16.70;99.90;;;;;;4979946;28;20042;-35
2023/07/23 10:47:49;;;;;;;6.03;2.78;;;16.70;99.90;;;;;;4982570;28;20049;-35
2023/07/23 10:50:16;;;;;;;5.15;2.60;;;16.70;99.90;;;;;;4994797;28;20086;-35
2023/07/23 10:52:49;;;;;;;6.60;2.40;;;16.70;99.90;;;;;;4996172;28;20042;-35
2023/07/23 10:55:47;;;;;;;4.57;2.47;;;16.80;99.90;;;;;;4994529;28;20046;-35
2023/07/23 10:58:20;;;;;;;4.97;2.85;;;16.80;99.90;;;;;;4995493;28;20056;-35
2023/07/23 11:01:06;;;;;;;4.03;2.38;;;16.80;99.90;;;;;;4996520;28;20050;-34
2023/07/23 11:03:32;;;;;;;5.88;3.28;;;16.80;99.90;;;;;;4987280;28;20088;-33
2023/07/23 11:05:58;;;;;;;5.47;2.80;;;16.80;99.90;;;;;;4999289;28;20059;-33
2023/07/23 11:08:26;;;;;;;8.93;2.55;;;16.90;99.90;;;;;;4991341;28;20065;-34
2023/07/23 11:10:57;;;;;;;5.32;2.45;;;16.80;99.90;;;;;;5000558;28;20045;-34
2023/07/23 11:13:25;;;;;;;4.78;2.40;;;16.80;99.90;;;;;;4998229;28;20112;-34
2023/07/23 11:15:51;;;;;;;6.93;2.75;;;16.90;99.90;;;;;;4994848;28;20046;-34
2023/07/23 11:18:20;;;;;;;4.10;2.50;;;16.90;99.90;;;;;;4993740;28;20050;-34
2023/07/23 11:20:51;;;;;;;4.70;2.65;;;16.90;99.90;;;;;;4988364;28;20492;-34
2023/07/23 11:23:20;;;;;;;3.78;2.50;;;17.00;99.90;;;;;;4995425;28;20077;-35
2023/07/23 11:25:47;;;;;;;4.03;2.30;;;17.00;99.90;;;;;;5002577;28;20850;-34
2023/07/23 11:28:13;;;;;;;5.50;2.67;;;17.10;99.90;;;;;;5005185;28;20065;-36
2023/07/23 11:30:39;;;;;;;4.57;2.40;;;17.10;99.90;;;;;;5000133;28;20052;-35
2023/07/23 11:33:05;;;;;;;5.05;2.55;;;17.10;99.90;;;;;;4994540;28;20057;-35
2023/07/23 11:35:32;;;;;;;4.25;2.03;;;17.10;99.90;;;;;;4994314;28;20141;-35
2023/07/23 11:38:04;;;;;;;3.28;1.83;;;17.20;99.90;;;;;;4991180;28;20567;-35
2023/07/23 11:40:31;;;;;;;4.90;1.92;;;17.20;99.90;;;;;;4993131;28;20148;-35
2023/07/23 11:43:03;;;;;;;3.83;1.70;;;17.20;99.90;;;;;;4997212;28;20128;-36
2023/07/23 11:45:29;;;;;;;6.78;2.05;;;17.30;99.90;;;;;;4998040;28;20054;-35
2023/07/23 11:47:55;;;;;;;3.58;1.73;;;17.30;99.90;;;;;;5005375;28;20125;-35
2023/07/23 11:50:23;;;;;;;3.60;1.83;;;17.30;99.90;;;;;;5006112;28;20053;-35
2023/07/23 11:52:50;;;;;;;3.90;1.73;;;17.30;99.90;;;;;;5000799;28;20399;-35
2023/07/23 11:55:25;;;;;;;3.15;1.38;;;17.30;99.90;;;;;;4996502;28;20476;-35
2023/07/23 11:57:58;;;;;;;4.47;1.58;;;17.40;99.90;;;;;;4999660;28;20527;-35
2023/07/23 12:00:37;;;;;;;2.58;1.42;;;17.40;99.90;;;;;;5012240;28;20068;-35
2023/07/23 12:03:07;;;;;;;4.40;1.70;;;17.50;99.90;;;;;;4990533;28;20077;-35
2023/07/23 12:05:33;;;;;;;4.78;2.03;;;17.50;99.90;;;;;;5003460;28;20385;-35
2023/07/23 12:07:59;;;;;;;4.13;2.03;;;17.50;99.90;;;;;;4993921;28;20054;-35
2023/07/23 12:10:28;;;;;;;3.67;2.10;;;17.60;99.90;;;;;;4993827;28;20235;-35
2023/07/23 12:12:54;;;;;;;3.60;1.98;;;17.70;99.90;;;;;;4992438;28;20073;-35
2023/07/23 12:15:20;;;;;;;4.25;2.30;;;17.90;99.90;;;;;;4993874;28;20088;-35
2023/07/23 12:17:46;;;;;;;2.92;1.70;;;18.20;99.90;;;;;;4986632;28;20054;-35
2023/07/23 12:20:17;;;;;;;5.55;2.50;;;18.50;99.90;;;;;;4980663;28;20046;-35
2023/07/23 12:22:50;;;;;;;4.25;2.08;;;18.60;99.90;;;;;;4990879;28;20054;-35
2023/07/23 12:25:16;;;;;;;3.63;2.20;;;18.70;99.90;;;;;;4981633;28;20058;-35
2023/07/23 12:27:41;;;;;;;4.75;2.25;;;18.70;99.90;;;;;;4992067;28;20129;-35
2023/07/23 12:30:07;;;;;;;6.72;2.20;;;18.80;99.90;;;;;;4985261;28;20141;-35
2023/07/23 12:32:34;;;;;;;4.18;2.30;;;19.00;99.90;;;;;;4986458;28;20046;-39
2023/07/23 12:35:00;;;;;;;6.60;3.22;;;19.40;99.90;;;;;;4982700;28;20092;-35
2023/07/23 12:37:26;;;;;;;4.00;2.53;;;19.70;99.90;;;;;;4996550;28;20437;-36
2023/07/23 12:39:55;;;;;;;4.68;3.10;;;19.90;99.90;;;;;;4998855;28;20042;-36
2023/07/23 12:42:21;;;;;;;4.95;2.45;;;19.90;99.90;;;;;;5004472;28;20492;-35
2023/07/23 12:44:47;;;;;;;4.63;2.97;;;19.90;99.90;;;;;;4978790;28;20054;-36